createdAt,value
2018-06-23T17:30:05.200Z,17.70
2018-06-23T17:32:34.842Z,17.60
2018-06-23T17:35:04.677Z,17.50
2018-06-23T17:37:33.289Z,17.50
2018-06-23T17:40:03.201Z,17.50
2018-06-23T17:42:32.821Z,17.50
2018-06-23T17:45:04.422Z,17.50
2018-06-23T17:47:35.214Z,17.50
2018-06-23T17:50:05.304Z,17.50
2018-06-23T17:52:34.193Z,17.50
2018-06-23T17:55:02.895Z,17.60
2018-06-23T17:57:32.812Z,17.70
2018-06-23T18:00:01.566Z,17.80
2018-06-23T18:02:33.979Z,17.90
2018-06-23T18:05:03.202Z,17.70
2018-06-23T18:10:07.029Z,17.70
2018-06-23T18:12:37.977Z,17.70
2018-06-23T18:15:07.709Z,17.60
2018-06-23T18:17:40.167Z,17.50
2018-06-23T18:20:09.919Z,17.30
2018-06-23T18:22:43.361Z,17.20
2018-06-23T18:25:12.876Z,17.10
2018-06-23T18:27:47.463Z,17.00
2018-06-23T18:30:17.257Z,16.80
2018-06-23T18:32:46.709Z,16.80
2018-06-23T18:35:15.968Z,16.60
2018-06-23T18:37:58.400Z,16.60
2018-06-23T18:40:28.175Z,16.50
2018-06-23T18:42:57.809Z,16.50
2018-06-23T18:47:56.549Z,16.30
2018-06-23T18:50:26.364Z,16.30
2018-06-23T18:52:54.906Z,16.20
2018-06-23T18:55:25.591Z,16.10
2018-06-23T18:58:01.518Z,16.10
2018-06-23T19:00:30.978Z,16.10
2018-06-23T19:03:01.614Z,16.00
2018-06-23T19:08:02.402Z,16.00
2018-06-23T19:10:31.553Z,16.00
2018-06-23T19:13:13.587Z,16.00
2018-06-23T19:18:12.264Z,15.90
2018-06-23T19:20:42.210Z,17.70
2018-06-23T19:23:13.312Z,15.90
2018-06-23T19:25:45.009Z,15.90
2018-06-23T19:28:20.329Z,15.90
2018-06-23T19:30:55.925Z,16.00
2018-06-23T19:33:26.912Z,15.90
2018-06-23T19:35:56.713Z,16.00
2018-06-23T19:38:32.390Z,16.10
2018-06-23T19:41:03.172Z,16.10
2018-06-23T19:43:32.605Z,16.00
2018-06-23T19:46:03.110Z,16.00
2018-06-23T19:48:32.954Z,16.00
2018-06-23T19:51:03.333Z,16.10
2018-06-23T19:53:32.058Z,16.10
2018-06-23T19:56:02.445Z,15.90
2018-06-23T19:58:37.653Z,15.90
2018-06-23T20:03:40.648Z,15.90
2018-06-23T20:06:10.713Z,15.80
2018-06-23T20:08:42.879Z,15.80
2018-06-23T20:11:14.596Z,15.80
2018-06-23T20:13:43.790Z,15.70
2018-06-23T20:16:14.308Z,15.70
2018-06-23T20:18:43.738Z,16.90
2018-06-23T20:21:17.923Z,15.50
2018-06-23T20:23:48.324Z,15.60
2018-06-23T20:26:17.170Z,15.60
2018-06-23T20:28:47.169Z,15.60
2018-06-23T20:31:17.152Z,15.50
2018-06-23T20:33:50.421Z,15.50
2018-06-23T20:36:25.324Z,15.40
2018-06-23T20:39:05.086Z,15.30
2018-06-23T20:41:41.229Z,15.30
2018-06-23T20:44:14.773Z,15.30
2018-06-23T20:46:45.295Z,15.30
2018-06-23T20:49:15.762Z,15.30
2018-06-23T20:51:48.400Z,15.30
2018-06-23T20:54:19.348Z,15.30
2018-06-23T20:56:49.089Z,15.30
2018-06-23T20:59:17.711Z,15.30
2018-06-23T21:01:50.443Z,15.50
2018-06-23T21:04:19.371Z,15.20
2018-06-23T21:06:53.123Z,15.20
2018-06-23T21:09:24.012Z,15.60
2018-06-23T21:11:56.605Z,15.10
2018-06-23T21:14:25.645Z,15.10
2018-06-23T21:17:00.413Z,15.00
2018-06-23T21:19:29.221Z,14.90
2018-06-23T21:22:00.535Z,14.80
2018-06-23T21:24:30.734Z,14.80
2018-06-23T21:27:02.837Z,14.80
2018-06-23T21:32:14.437Z,13.80
2018-06-23T21:37:13.170Z,14.70
2018-06-23T21:39:42.191Z,14.70
2018-06-23T21:42:14.644Z,14.70
2018-06-23T21:44:46.303Z,14.70
2018-06-23T21:47:16.241Z,14.70
2018-06-23T21:49:46.457Z,14.60
2018-06-23T21:52:16.740Z,14.60
2018-06-23T21:54:46.551Z,14.50
2018-06-23T21:57:16.963Z,14.50
2018-06-23T21:59:45.615Z,14.50
2018-06-23T22:04:53.152Z,14.50
2018-06-23T22:07:22.770Z,14.40
2018-06-23T22:12:30.578Z,14.40
2018-06-23T22:17:30.277Z,14.30
2018-06-23T22:20:00.645Z,14.30
2018-06-23T22:22:30.648Z,15.70
2018-06-23T22:24:59.518Z,14.30
2018-06-23T22:27:29.217Z,14.20
2018-06-23T22:29:58.485Z,14.20
2018-06-23T22:32:30.570Z,15.00
2018-06-23T22:34:59.651Z,14.20
2018-06-23T22:37:34.690Z,14.20
2018-06-23T22:40:04.622Z,12.70
2018-06-23T22:42:34.194Z,14.10
2018-06-23T22:45:04.450Z,14.90
2018-06-23T22:47:36.437Z,14.10
2018-06-23T22:50:07.361Z,14.10
2018-06-23T22:52:38.692Z,14.10
2018-06-23T22:55:09.233Z,14.10
2018-06-23T22:57:40.494Z,14.10
2018-06-23T23:00:13.317Z,14.10
2018-06-23T23:02:43.130Z,14.10
2018-06-23T23:05:12.088Z,14.10
2018-06-23T23:07:44.997Z,14.10
2018-06-23T23:10:14.061Z,14.10
2018-06-23T23:12:46.999Z,14.00
2018-06-23T23:15:16.111Z,14.10
2018-06-23T23:17:49.278Z,14.10
2018-06-23T23:20:18.442Z,14.10
2018-06-23T23:23:01.058Z,14.00
2018-06-23T23:28:00.679Z,14.00
2018-06-23T23:30:29.649Z,14.10
2018-06-23T23:32:59.795Z,14.00
2018-06-23T23:35:30.294Z,14.00
2018-06-23T23:37:59.594Z,14.00
2018-06-23T23:40:28.668Z,13.90
2018-06-23T23:43:00.933Z,13.90
2018-06-23T23:48:11.063Z,13.80
2018-06-23T23:50:41.215Z,13.80
2018-06-23T23:53:10.380Z,13.80
2018-06-23T23:55:39.010Z,13.80
